Terminal Aerodrome Forecast
Issued by NWS Boston, MA

Home | Current Version | Previous Version | Text Only | Print | Product List | Glossary On
Versions: 1 2 3 4 5 6 7 8 9 10 11 12 13 14 15 16 17 18 19 20 21 22
000
FTUS41 KBOX 250927 AAE
TAFORH
TAF AMD
KORH 250927Z 2509/2606 25006KT 4SM BR SCT001
     FM251100 27005KT P6SM SCT011 BKN130
     FM251300 27006KT P6SM SCT150
     FM251600 28008KT P6SM FEW200=

USA.gov is the U.S. government's official web portal to all federal, state and local government web resources and services.